sensor_id;sensor_type;location;lat;lon;timestamp;P1;durP1;ratioP1;P2;durP2;ratioP2
17052;SDS011;8643;48.824;11.422;2022-08-19T00:01:56;28.13;;;23.55;;
17052;SDS011;8643;48.824;11.422;2022-08-19T00:04:29;26.13;;;22.02;;
17052;SDS011;8643;48.824;11.422;2022-08-19T00:07:02;25.80;;;22.35;;
17052;SDS011;8643;48.824;11.422;2022-08-19T00:09:32;26.42;;;22.48;;
17052;SDS011;8643;48.824;11.422;2022-08-19T00:12:01;29.45;;;23.20;;
17052;SDS011;8643;48.824;11.422;2022-08-19T00:14:30;29.83;;;22.02;;
17052;SDS011;8643;48.824;11.422;2022-08-19T00:16:59;24.67;;;21.48;;
17052;SDS011;8643;48.824;11.422;2022-08-19T00:19:30;27.73;;;21.90;;
17052;SDS011;8643;48.824;11.422;2022-08-19T00:21:59;28.45;;;22.38;;
17052;SDS011;8643;48.824;11.422;2022-08-19T00:24:28;25.73;;;22.63;;
17052;SDS011;8643;48.824;11.422;2022-08-19T00:26:57;30.67;;;22.65;;
17052;SDS011;8643;48.824;11.422;2022-08-19T00:29:48;26.95;;;22.85;;
17052;SDS011;8643;48.824;11.422;2022-08-19T00:32:18;27.23;;;24.20;;
17052;SDS011;8643;48.824;11.422;2022-08-19T00:34:50;28.58;;;23.98;;
17052;SDS011;8643;48.824;11.422;2022-08-19T00:37:19;30.10;;;23.35;;
17052;SDS011;8643;48.824;11.422;2022-08-19T00:39:50;28.80;;;25.08;;
17052;SDS011;8643;48.824;11.422;2022-08-19T00:42:18;30.67;;;24.98;;
17052;SDS011;8643;48.824;11.422;2022-08-19T00:44:49;30.88;;;25.25;;
17052;SDS011;8643;48.824;11.422;2022-08-19T00:47:18;31.77;;;25.02;;
17052;SDS011;8643;48.824;11.422;2022-08-19T00:49:47;27.92;;;23.77;;
17052;SDS011;8643;48.824;11.422;2022-08-19T00:52:23;28.83;;;23.90;;
17052;SDS011;8643;48.824;11.422;2022-08-19T00:54:56;33.30;;;25.88;;
17052;SDS011;8643;48.824;11.422;2022-08-19T00:57:27;31.23;;;25.08;;
17052;SDS011;8643;48.824;11.422;2022-08-19T01:00:03;30.05;;;25.30;;
17052;SDS011;8643;48.824;11.422;2022-08-19T01:02:39;31.98;;;26.35;;
17052;SDS011;8643;48.824;11.422;2022-08-19T01:05:11;30.15;;;24.95;;
17052;SDS011;8643;48.824;11.422;2022-08-19T01:07:44;29.85;;;24.02;;
17052;SDS011;8643;48.824;11.422;2022-08-19T01:10:15;31.58;;;24.95;;
17052;SDS011;8643;48.824;11.422;2022-08-19T01:12:49;30.88;;;24.85;;
17052;SDS011;8643;48.824;11.422;2022-08-19T01:15:22;34.95;;;25.42;;
17052;SDS011;8643;48.824;11.422;2022-08-19T01:17:57;32.28;;;25.13;;
17052;SDS011;8643;48.824;11.422;2022-08-19T01:20:33;31.55;;;26.27;;
17052;SDS011;8643;48.824;11.422;2022-08-19T01:23:03;32.67;;;25.02;;
17052;SDS011;8643;48.824;11.422;2022-08-19T01:25:32;29.42;;;24.38;;
17052;SDS011;8643;48.824;11.422;2022-08-19T01:28:14;30.77;;;25.77;;
17052;SDS011;8643;48.824;11.422;2022-08-19T01:31:06;32.58;;;25.90;;
17052;SDS011;8643;48.824;11.422;2022-08-19T01:33:53;30.35;;;24.98;;
17052;SDS011;8643;48.824;11.422;2022-08-19T01:36:25;33.47;;;26.23;;
17052;SDS011;8643;48.824;11.422;2022-08-19T01:38:58;31.33;;;25.60;;
17052;SDS011;8643;48.824;11.422;2022-08-19T01:41:27;36.67;;;29.25;;
17052;SDS011;8643;48.824;11.422;2022-08-19T01:43:55;36.92;;;28.48;;
17052;SDS011;8643;48.824;11.422;2022-08-19T01:46:43;38.42;;;29.10;;
17052;SDS011;8643;48.824;11.422;2022-08-19T01:49:13;37.45;;;29.63;;
17052;SDS011;8643;48.824;11.422;2022-08-19T01:51:44;35.85;;;28.35;;
17052;SDS011;8643;48.824;11.422;2022-08-19T01:54:15;36.78;;;28.58;;
17052;SDS011;8643;48.824;11.422;2022-08-19T01:56:53;42.75;;;30.88;;
17052;SDS011;8643;48.824;11.422;2022-08-19T01:59:28;39.13;;;29.05;;
17052;SDS011;8643;48.824;11.422;2022-08-19T02:01:58;41.53;;;31.23;;
17052;SDS011;8643;48.824;11.422;2022-08-19T02:04:27;40.08;;;29.65;;
17052;SDS011;8643;48.824;11.422;2022-08-19T02:06:57;42.00;;;30.85;;
17052;SDS011;8643;48.824;11.422;2022-08-19T02:09:26;52.08;;;35.42;;
17052;SDS011;8643;48.824;11.422;2022-08-19T02:11:55;51.17;;;35.45;;
17052;SDS011;8643;48.824;11.422;2022-08-19T02:14:23;50.05;;;33.08;;
17052;SDS011;8643;48.824;11.422;2022-08-19T02:16:51;51.17;;;33.33;;
17052;SDS011;8643;48.824;11.422;2022-08-19T02:19:20;48.80;;;34.00;;
17052;SDS011;8643;48.824;11.422;2022-08-19T02:21:48;49.45;;;34.88;;
17052;SDS011;8643;48.824;11.422;2022-08-19T02:24:17;46.70;;;33.25;;
17052;SDS011;8643;48.824;11.422;2022-08-19T02:26:46;47.95;;;33.83;;
17052;SDS011;8643;48.824;11.422;2022-08-19T02:29:15;51.10;;;35.13;;
17052;SDS011;8643;48.824;11.422;2022-08-19T02:31:43;54.58;;;37.30;;
17052;SDS011;8643;48.824;11.422;2022-08-19T02:34:11;57.33;;;36.92;;
17052;SDS011;8643;48.824;11.422;2022-08-19T02:36:40;57.25;;;36.38;;
17052;SDS011;8643;48.824;11.422;2022-08-19T02:39:08;50.63;;;34.95;;
17052;SDS011;8643;48.824;11.422;2022-08-19T02:41:35;54.45;;;37.42;;
17052;SDS011;8643;48.824;11.422;2022-08-19T02:44:05;50.20;;;35.60;;
17052;SDS011;8643;48.824;11.422;2022-08-19T02:46:53;46.15;;;34.70;;
17052;SDS011;8643;48.824;11.422;2022-08-19T02:49:22;45.30;;;33.65;;
17052;SDS011;8643;48.824;11.422;2022-08-19T02:51:50;55.80;;;36.17;;
17052;SDS011;8643;48.824;11.422;2022-08-19T02:54:18;55.50;;;37.22;;
17052;SDS011;8643;48.824;11.422;2022-08-19T02:56:47;45.42;;;32.63;;
17052;SDS011;8643;48.824;11.422;2022-08-19T02:59:17;49.35;;;33.75;;
17052;SDS011;8643;48.824;11.422;2022-08-19T03:01:48;46.17;;;31.90;;
17052;SDS011;8643;48.824;11.422;2022-08-19T03:04:17;44.53;;;32.67;;
17052;SDS011;8643;48.824;11.422;2022-08-19T03:06:47;44.60;;;32.47;;
17052;SDS011;8643;48.824;11.422;2022-08-19T03:09:16;43.80;;;32.20;;
17052;SDS011;8643;48.824;11.422;2022-08-19T03:11:47;43.00;;;30.13;;
17052;SDS011;8643;48.824;11.422;2022-08-19T03:14:19;47.38;;;33.10;;
17052;SDS011;8643;48.824;11.422;2022-08-19T03:16:49;42.63;;;31.90;;
17052;SDS011;8643;48.824;11.422;2022-08-19T03:19:19;39.15;;;29.13;;
17052;SDS011;8643;48.824;11.422;2022-08-19T03:21:48;42.85;;;32.10;;
17052;SDS011;8643;48.824;11.422;2022-08-19T03:24:17;39.75;;;30.73;;
17052;SDS011;8643;48.824;11.422;2022-08-19T03:26:47;43.10;;;31.15;;
17052;SDS011;8643;48.824;11.422;2022-08-19T03:29:20;43.30;;;31.25;;
17052;SDS011;8643;48.824;11.422;2022-08-19T03:31:57;46.33;;;32.05;;
17052;SDS011;8643;48.824;11.422;2022-08-19T03:34:28;41.50;;;31.13;;
17052;SDS011;8643;48.824;11.422;2022-08-19T03:36:59;39.85;;;30.48;;
17052;SDS011;8643;48.824;11.422;2022-08-19T03:39:32;42.38;;;31.08;;
17052;SDS011;8643;48.824;11.422;2022-08-19T03:42:03;42.35;;;30.40;;
17052;SDS011;8643;48.824;11.422;2022-08-19T03:44:53;41.92;;;30.83;;
17052;SDS011;8643;48.824;11.422;2022-08-19T03:47:21;41.38;;;29.73;;
17052;SDS011;8643;48.824;11.422;2022-08-19T03:49:50;40.63;;;30.15;;
17052;SDS011;8643;48.824;11.422;2022-08-19T03:52:18;43.05;;;31.15;;
17052;SDS011;8643;48.824;11.422;2022-08-19T03:54:46;42.17;;;30.23;;
17052;SDS011;8643;48.824;11.422;2022-08-19T03:57:14;44.15;;;32.28;;
17052;SDS011;8643;48.824;11.422;2022-08-19T03:59:43;44.85;;;32.72;;
17052;SDS011;8643;48.824;11.422;2022-08-19T04:02:12;47.03;;;32.38;;
17052;SDS011;8643;48.824;11.422;2022-08-19T04:04:42;43.20;;;32.33;;
17052;SDS011;8643;48.824;11.422;2022-08-19T04:07:12;44.70;;;31.83;;
17052;SDS011;8643;48.824;11.422;2022-08-19T04:09:42;43.60;;;31.35;;
17052;SDS011;8643;48.824;11.422;2022-08-19T04:12:11;41.80;;;30.45;;
17052;SDS011;8643;48.824;11.422;2022-08-19T04:14:39;39.50;;;29.60;;
17052;SDS011;8643;48.824;11.422;2022-08-19T04:17:08;42.08;;;30.17;;
17052;SDS011;8643;48.824;11.422;2022-08-19T04:19:37;43.38;;;31.88;;
17052;SDS011;8643;48.824;11.422;2022-08-19T04:22:06;46.85;;;31.90;;
17052;SDS011;8643;48.824;11.422;2022-08-19T04:24:34;42.92;;;30.92;;
17052;SDS011;8643;48.824;11.422;2022-08-19T04:27:03;42.03;;;30.73;;
17052;SDS011;8643;48.824;11.422;2022-08-19T04:29:33;47.78;;;32.38;;
17052;SDS011;8643;48.824;11.422;2022-08-19T04:32:02;41.72;;;30.50;;
17052;SDS011;8643;48.824;11.422;2022-08-19T04:34:34;41.95;;;30.23;;
17052;SDS011;8643;48.824;11.422;2022-08-19T04:37:25;45.08;;;31.77;;
17052;SDS011;8643;48.824;11.422;2022-08-19T04:40:02;43.88;;;31.65;;
17052;SDS011;8643;48.824;11.422;2022-08-19T04:42:51;46.05;;;31.95;;
17052;SDS011;8643;48.824;11.422;2022-08-19T04:45:20;46.03;;;31.77;;
17052;SDS011;8643;48.824;11.422;2022-08-19T04:47:48;46.10;;;31.58;;
17052;SDS011;8643;48.824;11.422;2022-08-19T04:50:39;44.60;;;31.73;;
17052;SDS011;8643;48.824;11.422;2022-08-19T04:53:10;42.90;;;31.23;;
17052;SDS011;8643;48.824;11.422;2022-08-19T04:55:39;43.05;;;30.17;;
17052;SDS011;8643;48.824;11.422;2022-08-19T04:58:08;40.92;;;30.70;;
17052;SDS011;8643;48.824;11.422;2022-08-19T05:00:37;42.60;;;31.25;;
17052;SDS011;8643;48.824;11.422;2022-08-19T05:03:07;40.85;;;30.58;;
17052;SDS011;8643;48.824;11.422;2022-08-19T05:05:38;43.72;;;32.63;;
17052;SDS011;8643;48.824;11.422;2022-08-19T05:08:12;44.25;;;31.95;;
17052;SDS011;8643;48.824;11.422;2022-08-19T05:10:56;45.28;;;30.65;;
17052;SDS011;8643;48.824;11.422;2022-08-19T05:13:25;46.92;;;33.47;;
17052;SDS011;8643;48.824;11.422;2022-08-19T05:15:54;42.05;;;31.15;;
17052;SDS011;8643;48.824;11.422;2022-08-19T05:18:25;38.83;;;28.58;;
17052;SDS011;8643;48.824;11.422;2022-08-19T05:21:12;42.35;;;31.35;;
17052;SDS011;8643;48.824;11.422;2022-08-19T05:24:04;44.97;;;31.27;;
17052;SDS011;8643;48.824;11.422;2022-08-19T05:26:35;46.85;;;32.42;;
17052;SDS011;8643;48.824;11.422;2022-08-19T05:29:04;42.95;;;31.70;;
17052;SDS011;8643;48.824;11.422;2022-08-19T05:31:36;41.85;;;29.95;;
17052;SDS011;8643;48.824;11.422;2022-08-19T05:34:07;44.80;;;32.58;;
17052;SDS011;8643;48.824;11.422;2022-08-19T05:36:45;38.85;;;29.25;;
17052;SDS011;8643;48.824;11.422;2022-08-19T05:39:17;41.50;;;31.45;;
17052;SDS011;8643;48.824;11.422;2022-08-19T05:41:49;41.30;;;30.58;;
17052;SDS011;8643;48.824;11.422;2022-08-19T05:44:20;36.75;;;28.00;;
17052;SDS011;8643;48.824;11.422;2022-08-19T05:46:48;41.63;;;31.38;;
17052;SDS011;8643;48.824;11.422;2022-08-19T05:49:20;39.47;;;31.35;;
17052;SDS011;8643;48.824;11.422;2022-08-19T05:51:51;40.47;;;29.33;;
17052;SDS011;8643;48.824;11.422;2022-08-19T05:54:22;41.65;;;30.35;;
17052;SDS011;8643;48.824;11.422;2022-08-19T05:56:52;39.50;;;28.40;;
17052;SDS011;8643;48.824;11.422;2022-08-19T05:59:21;37.75;;;29.25;;
17052;SDS011;8643;48.824;11.422;2022-08-19T06:01:51;34.95;;;27.55;;
17052;SDS011;8643;48.824;11.422;2022-08-19T06:04:23;39.97;;;29.60;;
17052;SDS011;8643;48.824;11.422;2022-08-19T06:06:52;40.47;;;30.70;;
17052;SDS011;8643;48.824;11.422;2022-08-19T06:09:24;44.10;;;31.50;;
17052;SDS011;8643;48.824;11.422;2022-08-19T06:11:53;38.38;;;30.45;;
17052;SDS011;8643;48.824;11.422;2022-08-19T06:14:26;42.25;;;32.03;;
17052;SDS011;8643;48.824;11.422;2022-08-19T06:17:05;45.20;;;32.72;;
17052;SDS011;8643;48.824;11.422;2022-08-19T06:19:33;43.72;;;33.72;;
17052;SDS011;8643;48.824;11.422;2022-08-19T06:22:06;42.38;;;31.73;;
17052;SDS011;8643;48.824;11.422;2022-08-19T06:24:39;45.22;;;34.78;;
17052;SDS011;8643;48.824;11.422;2022-08-19T06:27:07;46.38;;;35.80;;
17052;SDS011;8643;48.824;11.422;2022-08-19T06:29:36;45.88;;;34.65;;
17052;SDS011;8643;48.824;11.422;2022-08-19T06:32:05;48.15;;;36.47;;
17052;SDS011;8643;48.824;11.422;2022-08-19T06:34:34;47.00;;;35.17;;
17052;SDS011;8643;48.824;11.422;2022-08-19T06:37:02;48.90;;;35.33;;
17052;SDS011;8643;48.824;11.422;2022-08-19T06:39:32;47.97;;;34.42;;
17052;SDS011;8643;48.824;11.422;2022-08-19T06:42:07;47.15;;;34.75;;
17052;SDS011;8643;48.824;11.422;2022-08-19T06:44:38;38.58;;;29.77;;
17052;SDS011;8643;48.824;11.422;2022-08-19T06:47:15;45.05;;;33.45;;
17052;SDS011;8643;48.824;11.422;2022-08-19T06:49:52;41.05;;;31.70;;
17052;SDS011;8643;48.824;11.422;2022-08-19T06:52:31;48.38;;;36.85;;
17052;SDS011;8643;48.824;11.422;2022-08-19T06:55:04;47.35;;;35.90;;
17052;SDS011;8643;48.824;11.422;2022-08-19T06:57:35;45.47;;;35.00;;
17052;SDS011;8643;48.824;11.422;2022-08-19T07:00:03;42.45;;;33.22;;
17052;SDS011;8643;48.824;11.422;2022-08-19T07:02:38;46.22;;;35.17;;
17052;SDS011;8643;48.824;11.422;2022-08-19T07:05:13;46.38;;;34.85;;
17052;SDS011;8643;48.824;11.422;2022-08-19T07:07:42;45.97;;;34.45;;
17052;SDS011;8643;48.824;11.422;2022-08-19T07:10:13;49.97;;;35.97;;
17052;SDS011;8643;48.824;11.422;2022-08-19T07:12:43;48.65;;;36.58;;
17052;SDS011;8643;48.824;11.422;2022-08-19T07:15:13;46.67;;;35.95;;
17052;SDS011;8643;48.824;11.422;2022-08-19T07:17:44;56.90;;;38.47;;
17052;SDS011;8643;48.824;11.422;2022-08-19T07:20:18;49.67;;;35.55;;
17052;SDS011;8643;48.824;11.422;2022-08-19T07:22:53;51.75;;;36.83;;
17052;SDS011;8643;48.824;11.422;2022-08-19T07:25:22;52.88;;;37.03;;
17052;SDS011;8643;48.824;11.422;2022-08-19T07:27:59;53.78;;;36.80;;
17052;SDS011;8643;48.824;11.422;2022-08-19T07:30:28;53.83;;;34.38;;
17052;SDS011;8643;48.824;11.422;2022-08-19T07:32:57;47.25;;;34.35;;
17052;SDS011;8643;48.824;11.422;2022-08-19T07:35:29;53.95;;;36.03;;
17052;SDS011;8643;48.824;11.422;2022-08-19T07:37:58;50.45;;;36.05;;
17052;SDS011;8643;48.824;11.422;2022-08-19T07:40:29;52.28;;;36.00;;
17052;SDS011;8643;48.824;11.422;2022-08-19T07:42:59;49.15;;;34.97;;
17052;SDS011;8643;48.824;11.422;2022-08-19T07:45:27;47.13;;;33.90;;
17052;SDS011;8643;48.824;11.422;2022-08-19T07:47:58;51.05;;;35.40;;
17052;SDS011;8643;48.824;11.422;2022-08-19T07:50:27;51.55;;;35.20;;
17052;SDS011;8643;48.824;11.422;2022-08-19T07:52:55;49.25;;;35.55;;
17052;SDS011;8643;48.824;11.422;2022-08-19T07:55:24;47.42;;;34.35;;
17052;SDS011;8643;48.824;11.422;2022-08-19T07:58:09;50.25;;;33.65;;
17052;SDS011;8643;48.824;11.422;2022-08-19T08:00:40;50.58;;;34.15;;
17052;SDS011;8643;48.824;11.422;2022-08-19T08:03:10;48.65;;;33.72;;
17052;SDS011;8643;48.824;11.422;2022-08-19T08:05:40;50.72;;;34.17;;
17052;SDS011;8643;48.824;11.422;2022-08-19T08:08:26;48.40;;;32.72;;
17052;SDS011;8643;48.824;11.422;2022-08-19T08:11:14;47.60;;;33.05;;
17052;SDS011;8643;48.824;11.422;2022-08-19T08:13:48;47.30;;;32.67;;
17052;SDS011;8643;48.824;11.422;2022-08-19T08:16:29;45.45;;;32.47;;
17052;SDS011;8643;48.824;11.422;2022-08-19T08:19:05;46.42;;;32.45;;
17052;SDS011;8643;48.824;11.422;2022-08-19T08:21:46;44.00;;;32.58;;
17052;SDS011;8643;48.824;11.422;2022-08-19T08:24:15;39.92;;;29.83;;
17052;SDS011;8643;48.824;11.422;2022-08-19T08:26:44;38.97;;;29.20;;
17052;SDS011;8643;48.824;11.422;2022-08-19T08:29:23;40.65;;;29.13;;
17052;SDS011;8643;48.824;11.422;2022-08-19T08:32:00;43.63;;;31.48;;
17052;SDS011;8643;48.824;11.422;2022-08-19T08:34:40;47.13;;;31.55;;
17052;SDS011;8643;48.824;11.422;2022-08-19T08:37:08;43.47;;;30.27;;
17052;SDS011;8643;48.824;11.422;2022-08-19T08:39:36;41.40;;;30.33;;
17052;SDS011;8643;48.824;11.422;2022-08-19T08:42:06;38.67;;;29.65;;
17052;SDS011;8643;48.824;11.422;2022-08-19T08:44:51;38.50;;;28.08;;
17052;SDS011;8643;48.824;11.422;2022-08-19T08:47:29;39.50;;;28.27;;
17052;SDS011;8643;48.824;11.422;2022-08-19T08:50:07;36.78;;;27.50;;
17052;SDS011;8643;48.824;11.422;2022-08-19T08:52:46;35.70;;;27.20;;
17052;SDS011;8643;48.824;11.422;2022-08-19T08:55:21;35.70;;;27.67;;
17052;SDS011;8643;48.824;11.422;2022-08-19T08:58:03;38.13;;;28.05;;
17052;SDS011;8643;48.824;11.422;2022-08-19T09:00:43;43.05;;;28.83;;
17052;SDS011;8643;48.824;11.422;2022-08-19T09:03:16;35.03;;;27.27;;
17052;SDS011;8643;48.824;11.422;2022-08-19T09:05:50;32.33;;;24.67;;
17052;SDS011;8643;48.824;11.422;2022-08-19T09:08:32;33.20;;;25.35;;
17052;SDS011;8643;48.824;11.422;2022-08-19T09:11:12;31.88;;;26.23;;
17052;SDS011;8643;48.824;11.422;2022-08-19T09:14:10;34.72;;;25.70;;
17052;SDS011;8643;48.824;11.422;2022-08-19T09:17:12;35.33;;;27.45;;
17052;SDS011;8643;48.824;11.422;2022-08-19T09:19:51;32.30;;;25.20;;
17052;SDS011;8643;48.824;11.422;2022-08-19T09:22:22;31.58;;;24.00;;
17052;SDS011;8643;48.824;11.422;2022-08-19T09:24:53;35.45;;;27.27;;
17052;SDS011;8643;48.824;11.422;2022-08-19T09:27:24;35.67;;;26.70;;
17052;SDS011;8643;48.824;11.422;2022-08-19T09:30:15;33.75;;;26.25;;
17052;SDS011;8643;48.824;11.422;2022-08-19T09:32:49;32.63;;;25.25;;
17052;SDS011;8643;48.824;11.422;2022-08-19T09:35:19;35.03;;;27.05;;
17052;SDS011;8643;48.824;11.422;2022-08-19T09:37:50;33.72;;;25.77;;
17052;SDS011;8643;48.824;11.422;2022-08-19T09:40:24;33.45;;;25.40;;
17052;SDS011;8643;48.824;11.422;2022-08-19T09:42:56;29.83;;;24.25;;
17052;SDS011;8643;48.824;11.422;2022-08-19T09:45:35;27.70;;;22.58;;
17052;SDS011;8643;48.824;11.422;2022-08-19T09:48:05;32.53;;;23.10;;
17052;SDS011;8643;48.824;11.422;2022-08-19T09:50:35;29.90;;;22.77;;
17052;SDS011;8643;48.824;11.422;2022-08-19T09:53:17;31.88;;;22.80;;
17052;SDS011;8643;48.824;11.422;2022-08-19T09:55:45;29.48;;;22.45;;
17052;SDS011;8643;48.824;11.422;2022-08-19T09:58:14;28.10;;;22.73;;
17052;SDS011;8643;48.824;11.422;2022-08-19T10:00:42;28.83;;;22.88;;
17052;SDS011;8643;48.824;11.422;2022-08-19T10:03:18;28.40;;;22.33;;
17052;SDS011;8643;48.824;11.422;2022-08-19T10:05:51;26.30;;;21.08;;
17052;SDS011;8643;48.824;11.422;2022-08-19T10:08:21;28.20;;;22.13;;
17052;SDS011;8643;48.824;11.422;2022-08-19T10:10:54;26.50;;;21.73;;
17052;SDS011;8643;48.824;11.422;2022-08-19T10:13:25;28.88;;;21.55;;
17052;SDS011;8643;48.824;11.422;2022-08-19T10:15:57;28.35;;;22.13;;
17052;SDS011;8643;48.824;11.422;2022-08-19T10:18:34;26.90;;;21.17;;
17052;SDS011;8643;48.824;11.422;2022-08-19T10:21:10;29.95;;;22.13;;
17052;SDS011;8643;48.824;11.422;2022-08-19T10:23:42;30.40;;;23.10;;
17052;SDS011;8643;48.824;11.422;2022-08-19T10:26:16;28.77;;;22.20;;
17052;SDS011;8643;48.824;11.422;2022-08-19T10:28:47;30.35;;;22.98;;
17052;SDS011;8643;48.824;11.422;2022-08-19T10:31:17;36.78;;;26.10;;
17052;SDS011;8643;48.824;11.422;2022-08-19T10:34:16;37.92;;;26.42;;
17052;SDS011;8643;48.824;11.422;2022-08-19T10:36:54;49.28;;;28.63;;
17052;SDS011;8643;48.824;11.422;2022-08-19T10:39:27;39.17;;;27.00;;
17052;SDS011;8643;48.824;11.422;2022-08-19T10:41:58;39.38;;;26.50;;
17052;SDS011;8643;48.824;11.422;2022-08-19T10:44:26;47.28;;;28.83;;
17052;SDS011;8643;48.824;11.422;2022-08-19T10:46:58;45.42;;;30.40;;
17052;SDS011;8643;48.824;11.422;2022-08-19T10:49:28;49.83;;;31.08;;
17052;SDS011;8643;48.824;11.422;2022-08-19T10:51:58;46.65;;;31.45;;
17052;SDS011;8643;48.824;11.422;2022-08-19T10:54:46;45.28;;;31.02;;
17052;SDS011;8643;48.824;11.422;2022-08-19T10:57:34;47.08;;;31.83;;
17052;SDS011;8643;48.824;11.422;2022-08-19T11:00:23;50.13;;;32.53;;
17052;SDS011;8643;48.824;11.422;2022-08-19T11:02:52;44.17;;;30.35;;
17052;SDS011;8643;48.824;11.422;2022-08-19T11:05:23;44.55;;;29.45;;
17052;SDS011;8643;48.824;11.422;2022-08-19T11:07:51;41.90;;;28.45;;
17052;SDS011;8643;48.824;11.422;2022-08-19T11:10:20;46.47;;;29.67;;
17052;SDS011;8643;48.824;11.422;2022-08-19T11:12:49;43.13;;;28.90;;
17052;SDS011;8643;48.824;11.422;2022-08-19T11:15:20;39.63;;;27.80;;
17052;SDS011;8643;48.824;11.422;2022-08-19T11:17:50;44.35;;;28.58;;
17052;SDS011;8643;48.824;11.422;2022-08-19T11:20:20;38.35;;;27.80;;
17052;SDS011;8643;48.824;11.422;2022-08-19T11:22:51;38.42;;;27.33;;
17052;SDS011;8643;48.824;11.422;2022-08-19T11:25:20;43.03;;;28.95;;
17052;SDS011;8643;48.824;11.422;2022-08-19T11:27:49;39.22;;;27.20;;
17052;SDS011;8643;48.824;11.422;2022-08-19T11:30:18;35.42;;;26.05;;
17052;SDS011;8643;48.824;11.422;2022-08-19T11:32:47;28.90;;;22.77;;
17052;SDS011;8643;48.824;11.422;2022-08-19T11:35:16;26.48;;;20.48;;
17052;SDS011;8643;48.824;11.422;2022-08-19T11:37:47;25.05;;;20.15;;
17052;SDS011;8643;48.824;11.422;2022-08-19T11:40:16;25.60;;;19.63;;
17052;SDS011;8643;48.824;11.422;2022-08-19T11:42:44;29.88;;;19.58;;
17052;SDS011;8643;48.824;11.422;2022-08-19T11:45:22;28.08;;;20.98;;
17052;SDS011;8643;48.824;11.422;2022-08-19T11:47:51;28.45;;;21.95;;
17052;SDS011;8643;48.824;11.422;2022-08-19T11:50:20;27.15;;;21.23;;
17052;SDS011;8643;48.824;11.422;2022-08-19T11:52:51;29.25;;;21.05;;
17052;SDS011;8643;48.824;11.422;2022-08-19T11:55:22;35.03;;;24.05;;
17052;SDS011;8643;48.824;11.422;2022-08-19T11:57:51;30.52;;;22.17;;
17052;SDS011;8643;48.824;11.422;2022-08-19T12:00:19;31.70;;;22.45;;
17052;SDS011;8643;48.824;11.422;2022-08-19T12:02:48;32.28;;;22.42;;
17052;SDS011;8643;48.824;11.422;2022-08-19T12:05:16;32.45;;;23.30;;
17052;SDS011;8643;48.824;11.422;2022-08-19T12:07:45;35.03;;;23.48;;
17052;SDS011;8643;48.824;11.422;2022-08-19T12:10:15;33.65;;;22.35;;
17052;SDS011;8643;48.824;11.422;2022-08-19T12:12:45;33.55;;;23.25;;
17052;SDS011;8643;48.824;11.422;2022-08-19T12:15:24;32.20;;;23.23;;
17052;SDS011;8643;48.824;11.422;2022-08-19T12:18:02;35.60;;;24.52;;
17052;SDS011;8643;48.824;11.422;2022-08-19T12:20:33;37.67;;;26.33;;
17052;SDS011;8643;48.824;11.422;2022-08-19T12:23:03;37.50;;;25.73;;
17052;SDS011;8643;48.824;11.422;2022-08-19T12:25:34;37.55;;;25.30;;
17052;SDS011;8643;48.824;11.422;2022-08-19T12:28:03;42.80;;;27.70;;
17052;SDS011;8643;48.824;11.422;2022-08-19T12:30:32;44.92;;;27.80;;
17052;SDS011;8643;48.824;11.422;2022-08-19T12:33:00;38.08;;;26.98;;
17052;SDS011;8643;48.824;11.422;2022-08-19T12:35:28;37.50;;;26.13;;
17052;SDS011;8643;48.824;11.422;2022-08-19T12:37:57;38.85;;;26.73;;
17052;SDS011;8643;48.824;11.422;2022-08-19T12:40:26;37.05;;;26.33;;
17052;SDS011;8643;48.824;11.422;2022-08-19T12:42:56;35.85;;;25.65;;
17052;SDS011;8643;48.824;11.422;2022-08-19T12:45:25;36.20;;;25.67;;
17052;SDS011;8643;48.824;11.422;2022-08-19T12:47:53;38.97;;;27.35;;
17052;SDS011;8643;48.824;11.422;2022-08-19T12:50:21;37.50;;;26.48;;
17052;SDS011;8643;48.824;11.422;2022-08-19T12:52:50;36.92;;;26.27;;
17052;SDS011;8643;48.824;11.422;2022-08-19T12:55:18;33.97;;;25.15;;
17052;SDS011;8643;48.824;11.422;2022-08-19T12:57:47;35.55;;;25.23;;
17052;SDS011;8643;48.824;11.422;2022-08-19T13:00:18;37.42;;;25.85;;
17052;SDS011;8643;48.824;11.422;2022-08-19T13:02:50;35.33;;;25.08;;
17052;SDS011;8643;48.824;11.422;2022-08-19T13:05:20;36.88;;;25.42;;
17052;SDS011;8643;48.824;11.422;2022-08-19T13:07:52;39.15;;;26.85;;
17052;SDS011;8643;48.824;11.422;2022-08-19T13:10:24;36.60;;;25.88;;
17052;SDS011;8643;48.824;11.422;2022-08-19T13:13:01;34.58;;;25.25;;
17052;SDS011;8643;48.824;11.422;2022-08-19T13:15:34;36.60;;;24.33;;
17052;SDS011;8643;48.824;11.422;2022-08-19T13:18:06;36.60;;;24.58;;
17052;SDS011;8643;48.824;11.422;2022-08-19T13:20:37;34.90;;;24.70;;
17052;SDS011;8643;48.824;11.422;2022-08-19T13:23:17;35.97;;;24.08;;
17052;SDS011;8643;48.824;11.422;2022-08-19T13:25:54;40.40;;;27.38;;
17052;SDS011;8643;48.824;11.422;2022-08-19T13:28:24;35.20;;;24.30;;
17052;SDS011;8643;48.824;11.422;2022-08-19T13:31:15;38.92;;;25.90;;
17052;SDS011;8643;48.824;11.422;2022-08-19T13:34:02;37.75;;;25.50;;
17052;SDS011;8643;48.824;11.422;2022-08-19T13:36:31;39.20;;;26.33;;
17052;SDS011;8643;48.824;11.422;2022-08-19T13:39:00;39.17;;;26.52;;
17052;SDS011;8643;48.824;11.422;2022-08-19T13:41:29;43.08;;;27.02;;
17052;SDS011;8643;48.824;11.422;2022-08-19T13:43:57;44.80;;;27.88;;
17052;SDS011;8643;48.824;11.422;2022-08-19T13:46:27;42.05;;;28.27;;
17052;SDS011;8643;48.824;11.422;2022-08-19T13:48:55;46.33;;;28.77;;
17052;SDS011;8643;48.824;11.422;2022-08-19T13:51:24;42.42;;;28.35;;
17052;SDS011;8643;48.824;11.422;2022-08-19T13:53:53;49.97;;;29.73;;
17052;SDS011;8643;48.824;11.422;2022-08-19T13:56:21;53.63;;;31.35;;
17052;SDS011;8643;48.824;11.422;2022-08-19T13:58:52;47.45;;;29.40;;
17052;SDS011;8643;48.824;11.422;2022-08-19T14:01:24;48.05;;;30.80;;
17052;SDS011;8643;48.824;11.422;2022-08-19T14:03:55;46.97;;;29.52;;
17052;SDS011;8643;48.824;11.422;2022-08-19T14:06:23;41.92;;;28.30;;
17052;SDS011;8643;48.824;11.422;2022-08-19T14:08:51;47.70;;;29.52;;
17052;SDS011;8643;48.824;11.422;2022-08-19T14:11:20;48.58;;;29.38;;
17052;SDS011;8643;48.824;11.422;2022-08-19T14:13:49;45.83;;;29.90;;
17052;SDS011;8643;48.824;11.422;2022-08-19T14:16:17;46.97;;;30.00;;
17052;SDS011;8643;48.824;11.422;2022-08-19T14:18:47;46.80;;;30.55;;
17052;SDS011;8643;48.824;11.422;2022-08-19T14:21:19;50.35;;;31.55;;
17052;SDS011;8643;48.824;11.422;2022-08-19T14:23:50;50.97;;;31.42;;
17052;SDS011;8643;48.824;11.422;2022-08-19T14:26:20;53.75;;;31.38;;
17052;SDS011;8643;48.824;11.422;2022-08-19T14:28:50;50.55;;;32.83;;
17052;SDS011;8643;48.824;11.422;2022-08-19T14:31:19;55.75;;;31.90;;
17052;SDS011;8643;48.824;11.422;2022-08-19T14:33:55;52.65;;;33.17;;
17052;SDS011;8643;48.824;11.422;2022-08-19T14:36:25;53.33;;;33.42;;
17052;SDS011;8643;48.824;11.422;2022-08-19T14:38:54;61.75;;;34.13;;
17052;SDS011;8643;48.824;11.422;2022-08-19T14:41:23;62.38;;;35.67;;
17052;SDS011;8643;48.824;11.422;2022-08-19T14:43:53;68.22;;;37.85;;
17052;SDS011;8643;48.824;11.422;2022-08-19T14:46:22;61.58;;;37.63;;
17052;SDS011;8643;48.824;11.422;2022-08-19T14:48:54;68.90;;;40.10;;
17052;SDS011;8643;48.824;11.422;2022-08-19T14:51:26;66.30;;;38.95;;